createdAt,value
2022-08-03T00:01:28.191Z,99717.69
2022-08-03T00:03:55.282Z,99715.03
2022-08-03T00:06:22.157Z,99716.97
2022-08-03T00:08:48.975Z,99732.31
2022-08-03T00:11:15.926Z,99727.25
2022-08-03T00:13:42.908Z,99727.25
2022-08-03T00:16:10.946Z,99734.59
2022-08-03T00:18:38.223Z,99725.72
2022-08-03T00:21:05.868Z,99731.22
2022-08-03T00:23:51.887Z,99728.56
2022-08-03T00:26:20.757Z,99725.03
2022-08-03T00:28:47.946Z,99734.88
2022-08-03T00:31:15.156Z,99744.69
2022-08-03T00:33:57.934Z,99737.84
2022-08-03T00:36:25.699Z,99744.19
2022-08-03T00:38:52.508Z,99739.13
2022-08-03T00:41:19.347Z,99745.31
2022-08-03T00:43:47.699Z,99740.94
2022-08-03T00:46:20.633Z,99730.41
2022-08-03T00:48:52.513Z,99728.72
2022-08-03T00:51:20.974Z,99734.06
2022-08-03T00:53:48.209Z,99725.38
2022-08-03T00:56:16.632Z,99725.38
2022-08-03T00:58:47.405Z,99723.69
2022-08-03T01:01:15.136Z,99729.03
2022-08-03T01:03:42.243Z,99739.69
2022-08-03T01:06:34.123Z,99741.50
2022-08-03T01:09:09.786Z,99745.31
2022-08-03T01:11:59.725Z,99746.16
2022-08-03T01:14:34.730Z,99751.50
2022-08-03T01:17:22.882Z,99754.31
2022-08-03T01:20:08.345Z,99741.00
2022-08-03T01:22:53.385Z,99742.81
2022-08-03T01:25:58.393Z,99748.28
2022-08-03T01:28:43.733Z,99757.97
2022-08-03T01:31:12.320Z,99755.31
2022-08-03T01:33:46.277Z,99751.94
2022-08-03T01:36:16.385Z,99753.78
2022-08-03T01:38:51.447Z,99756.28
2022-08-03T01:41:21.971Z,99756.44
2022-08-03T01:44:26.538Z,99754.88
2022-08-03T01:46:40.715Z,99745.03
2022-08-03T01:49:17.390Z,99755.16
2022-08-03T01:52:02.831Z,99756.97
2022-08-03T01:54:35.949Z,99753.44
2022-08-03T01:57:03.494Z,99757.94
2022-08-03T01:59:32.760Z,99762.47
2022-08-03T02:02:15.311Z,99768.94
2022-08-03T02:04:50.695Z,99756.56
2022-08-03T02:07:18.494Z,99761.06
2022-08-03T02:09:50.199Z,99768.22
2022-08-03T02:12:19.088Z,99764.56
2022-08-03T02:14:48.954Z,99754.06
2022-08-03T02:17:16.647Z,99766.53
2022-08-03T02:19:45.597Z,99750.66
2022-08-03T02:22:14.791Z,99762.19
2022-08-03T02:24:41.860Z,99757.69
2022-08-03T02:27:34.046Z,99742.81
2022-08-03T02:30:07.745Z,99743.94
2022-08-03T02:32:40.602Z,99743.94
2022-08-03T02:35:12.150Z,99738.47
2022-08-03T02:37:49.364Z,99732.44
2022-08-03T02:40:19.322Z,99733.41
2022-08-03T02:42:47.781Z,99728.91
2022-08-03T02:45:17.516Z,99729.91
2022-08-03T02:47:53.478Z,99718.53
2022-08-03T02:50:24.306Z,99707.72
2022-08-03T02:52:53.487Z,99718.41
2022-08-03T02:55:23.205Z,99709.56
2022-08-03T02:57:51.947Z,99706.88
2022-08-03T03:00:28.337Z,99706.19
2022-08-03T03:03:02.825Z,99696.50
2022-08-03T03:05:54.898Z,99711.66
2022-08-03T03:08:26.821Z,99702.84
2022-08-03T03:10:58.597Z,99709.16
2022-08-03T03:13:27.263Z,99712.78
2022-08-03T03:15:56.800Z,99705.63
2022-08-03T03:18:25.468Z,99717.28
2022-08-03T03:20:54.352Z,99707.47
2022-08-03T03:23:25.804Z,99713.91
2022-08-03T03:25:53.639Z,99714.75
2022-08-03T03:28:21.044Z,99714.94
2022-08-03T03:30:53.212Z,99714.06
2022-08-03T03:33:21.298Z,99726.56
2022-08-03T03:35:48.734Z,99733.88
2022-08-03T03:38:15.597Z,99735.53
2022-08-03T03:40:42.873Z,99736.66
2022-08-03T03:43:11.888Z,99736.66
2022-08-03T03:45:41.530Z,99735.00
2022-08-03T03:48:09.074Z,99743.97
2022-08-03T03:50:37.758Z,99736.94
2022-08-03T03:53:05.165Z,99743.97
2022-08-03T03:55:36.788Z,99736.94
2022-08-03T03:58:23.636Z,99730.78
2022-08-03T04:00:54.195Z,99735.13
2022-08-03T04:03:21.233Z,99726.28
2022-08-03T04:06:06.895Z,99727.41
2022-08-03T04:08:52.333Z,99729.94
2022-08-03T04:11:29.476Z,99714.06
2022-08-03T04:14:02.059Z,99717.59
2022-08-03T04:16:32.745Z,99722.06
2022-08-03T04:19:03.444Z,99724.91
2022-08-03T04:21:32.381Z,99733.88
2022-08-03T04:24:02.797Z,99742.88
2022-08-03T04:26:34.093Z,99755.34
2022-08-03T04:29:02.006Z,99742.16
2022-08-03T04:31:30.540Z,99746.50
2022-08-03T04:33:58.093Z,99767.00
2022-08-03T04:36:28.156Z,99761.66
2022-08-03T04:39:05.541Z,99773.16
2022-08-03T04:41:32.726Z,99780.47
2022-08-03T04:44:21.089Z,99771.19
2022-08-03T04:46:57.149Z,99769.13
2022-08-03T04:49:24.844Z,99775.81
2022-08-03T04:51:52.962Z,99776.09
2022-08-03T04:54:19.930Z,99779.72
2022-08-03T04:56:46.794Z,99777.59
2022-08-03T04:59:13.842Z,99776.47
2022-08-03T05:01:42.860Z,99776.72
2022-08-03T05:04:10.077Z,99773.66
2022-08-03T05:06:37.012Z,99766.63
2022-08-03T05:09:14.841Z,99766.88
2022-08-03T05:11:41.702Z,99775.44
2022-08-03T05:14:08.552Z,99778.38
2022-08-03T05:16:35.463Z,99794.94
2022-08-03T05:19:02.313Z,99801.72
2022-08-03T05:21:51.135Z,99809.00
2022-08-03T05:24:16.562Z,99818.31
2022-08-03T05:26:43.451Z,99816.78
2022-08-03T05:29:10.307Z,99812.88
2022-08-03T05:31:37.198Z,99808.94
2022-08-03T05:34:04.159Z,99813.03
2022-08-03T05:36:30.991Z,99818.06
2022-08-03T05:39:02.462Z,99824.97
2022-08-03T05:41:37.001Z,99823.09
2022-08-03T05:44:05.216Z,99830.84
2022-08-03T05:46:32.438Z,99826.22
2022-08-03T05:48:59.391Z,99826.91
2022-08-03T05:51:26.446Z,99835.47
2022-08-03T05:53:53.466Z,99830.13
2022-08-03T05:56:24.603Z,99826.50
2022-08-03T05:58:52.749Z,99829.84
2022-08-03T06:01:24.195Z,99827.91
2022-08-03T06:03:52.495Z,99832.25
2022-08-03T06:06:19.640Z,99839.13
2022-08-03T06:08:47.007Z,99831.97
2022-08-03T06:11:13.919Z,99832.66
2022-08-03T06:13:41.434Z,99836.88
2022-08-03T06:16:09.193Z,99837.72
2022-08-03T06:18:36.461Z,99831.53
2022-08-03T06:21:14.365Z,99823.41
2022-08-03T06:23:52.970Z,99836.47
2022-08-03T06:26:22.149Z,99832.94
2022-08-03T06:28:52.424Z,99840.78
2022-08-03T06:31:21.724Z,99833.38
2022-08-03T06:34:30.461Z,99840.94
2022-08-03T06:36:35.484Z,99848.94
2022-08-03T06:39:03.500Z,99843.31
2022-08-03T06:41:30.492Z,99842.91
2022-08-03T06:44:04.662Z,99842.50
2022-08-03T06:46:31.792Z,99845.16
2022-08-03T06:48:58.673Z,99841.78
2022-08-03T06:52:37.461Z,99842.75
2022-08-03T06:54:12.870Z,99851.88
2022-08-03T06:56:39.735Z,99859.03
2022-08-03T06:59:06.593Z,99848.38
2022-08-03T07:01:33.564Z,99847.56
2022-08-03T07:04:01.446Z,99849.50
2022-08-03T07:06:28.322Z,99847.81
2022-08-03T07:08:59.192Z,99845.16
2022-08-03T07:11:26.787Z,99845.28
2022-08-03T07:13:53.772Z,99841.75
2022-08-03T07:16:20.795Z,99848.94
2022-08-03T07:18:48.738Z,99859.59
2022-08-03T07:21:17.013Z,99852.59
2022-08-03T07:23:43.944Z,99856.94
2022-08-03T07:26:10.789Z,99864.94
2022-08-03T07:28:38.074Z,99863.25
2022-08-03T07:31:04.969Z,99870.53
2022-08-03T07:33:31.889Z,99881.22
2022-08-03T07:35:58.850Z,99869.00
2022-08-03T07:38:25.801Z,99865.47
2022-08-03T07:40:54.098Z,99874.31
2022-08-03T07:43:21.264Z,99879.78
2022-08-03T07:45:48.145Z,99878.13
2022-08-03T07:48:15.111Z,99878.13
2022-08-03T07:50:42.149Z,99886.22
2022-08-03T07:53:09.132Z,99885.25
2022-08-03T07:55:36.292Z,99884.41
2022-08-03T07:58:05.161Z,99881.75
2022-08-03T08:00:32.773Z,99883.56
2022-08-03T08:02:59.806Z,99885.38
2022-08-03T08:05:28.513Z,99895.06
2022-08-03T08:07:55.833Z,99891.72
2022-08-03T08:10:23.084Z,99903.34
2022-08-03T08:12:50.776Z,99895.34
2022-08-03T08:15:18.034Z,99898.00
2022-08-03T08:17:52.272Z,99896.34
2022-08-03T08:20:27.851Z,99896.34
2022-08-03T08:23:01.397Z,99899.97
2022-08-03T08:25:29.885Z,99907.00
2022-08-03T08:28:30.056Z,99898.28
2022-08-03T08:30:45.110Z,99908.94
2022-08-03T08:33:22.689Z,99911.59
2022-08-03T08:35:52.187Z,99916.13
2022-08-03T08:38:19.328Z,99921.56
2022-08-03T08:40:46.566Z,99925.94
2022-08-03T08:43:13.572Z,99920.59
2022-08-03T08:45:41.686Z,99925.06
2022-08-03T08:48:10.826Z,99921.56
2022-08-03T08:50:39.112Z,99925.19
2022-08-03T08:53:09.695Z,99924.22
2022-08-03T08:55:56.943Z,99916.22
2022-08-03T08:58:28.865Z,99924.94
2022-08-03T09:00:56.426Z,99925.78
2022-08-03T09:03:30.181Z,99930.25
2022-08-03T09:05:59.938Z,99923.09
2022-08-03T09:08:27.193Z,99932.91
2022-08-03T09:10:54.156Z,99924.22
2022-08-03T09:13:21.446Z,99934.78
2022-08-03T09:15:59.109Z,99927.59
2022-08-03T09:18:32.777Z,99930.41
2022-08-03T09:21:36.765Z,99927.75
2022-08-03T09:24:10.262Z,99933.91
2022-08-03T09:26:40.215Z,99934.78
2022-08-03T09:29:14.964Z,99933.91
2022-08-03T09:31:45.339Z,99936.59
2022-08-03T09:34:17.468Z,99938.41
2022-08-03T09:36:46.108Z,99943.59
2022-08-03T09:39:41.312Z,99942.88
2022-08-03T09:42:18.554Z,99949.91
2022-08-03T09:44:48.528Z,99947.25
2022-08-03T09:47:28.373Z,99952.56
2022-08-03T09:50:04.879Z,99961.41
2022-08-03T09:52:39.007Z,99967.56
2022-08-03T09:55:23.816Z,99974.75
2022-08-03T09:58:10.791Z,99982.75
2022-08-03T10:01:00.753Z,99983.56
2022-08-03T10:03:30.328Z,99982.75
2022-08-03T10:05:59.922Z,99981.75
2022-08-03T10:08:27.144Z,99967.56
2022-08-03T10:10:55.028Z,99985.25
2022-08-03T10:13:23.437Z,99992.28
2022-08-03T10:16:23.238Z,100007.28
2022-08-03T10:18:38.108Z,99992.00
2022-08-03T10:21:10.929Z,99983.03
2022-08-03T10:23:40.355Z,99971.53
2022-08-03T10:26:08.591Z,99993.44
2022-08-03T10:28:44.476Z,99994.00
2022-08-03T10:31:14.371Z,100006.34
2022-08-03T10:33:50.689Z,100007.19
2022-08-03T10:36:23.634Z,100006.34
2022-08-03T10:38:56.877Z,100012.53
2022-08-03T10:41:27.116Z,100012.53
2022-08-03T10:44:05.821Z,100009.84
2022-08-03T10:46:34.892Z,100021.38
2022-08-03T10:49:02.531Z,100022.94
2022-08-03T10:51:32.440Z,100015.78
2022-08-03T10:54:01.950Z,100026.28
2022-08-03T10:56:54.349Z,100029.81
2022-08-03T10:59:46.625Z,100028.97
2022-08-03T11:02:15.227Z,100032.31
2022-08-03T11:04:43.211Z,100030.25
2022-08-03T11:07:23.534Z,100031.09
2022-08-03T11:09:56.122Z,100031.81
2022-08-03T11:12:32.451Z,100043.16
2022-08-03T11:15:06.061Z,100034.06
2022-08-03T11:17:46.322Z,100058.91
2022-08-03T11:20:44.960Z,100045.16
2022-08-03T11:23:12.415Z,100051.06
2022-08-03T11:26:12.695Z,100049.97
2022-08-03T11:28:42.012Z,100058.66
2022-08-03T11:31:48.858Z,100075.50
2022-08-03T11:34:15.005Z,100078.19
2022-08-03T11:37:23.273Z,100083.41
2022-08-03T11:39:53.311Z,100077.22
2022-08-03T11:42:23.124Z,100093.81
2022-08-03T11:44:55.202Z,100079.47
2022-08-03T11:47:23.265Z,100071.34
2022-08-03T11:49:52.419Z,100096.06
2022-08-03T11:52:27.147Z,100080.06
2022-08-03T11:54:57.165Z,100085.13
2022-08-03T11:59:17.091Z,100093.81
2022-08-03T12:00:27.433Z,100083.84
2022-08-03T12:02:56.600Z,100092.56
2022-08-03T12:05:39.769Z,100100.28
2022-08-03T12:08:08.655Z,100099.19
2022-08-03T12:10:36.341Z,100117.03
2022-08-03T12:13:56.627Z,100121.25
2022-08-03T12:15:59.504Z,100128.19
2022-08-03T12:18:26.671Z,100128.19
2022-08-03T12:21:03.592Z,100131.56
2022-08-03T12:23:32.081Z,100127.91
2022-08-03T12:26:10.847Z,100134.66
2022-08-03T12:28:38.645Z,100134.50
2022-08-03T12:31:08.343Z,100128.19
2022-08-03T12:33:58.919Z,100139.72
2022-08-03T12:36:27.088Z,100136.06
2022-08-03T12:39:07.866Z,100129.75
2022-08-03T12:41:39.840Z,100144.06
2022-08-03T12:44:08.316Z,100137.75
2022-08-03T12:46:47.033Z,100139.72
2022-08-03T12:49:17.700Z,100144.91
2022-08-03T12:51:44.708Z,100149.97
2022-08-03T12:54:24.733Z,100154.91
2022-08-03T12:57:03.589Z,100164.75
2022-08-03T12:59:35.161Z,100162.47
2022-08-03T13:02:09.128Z,100160.81
2022-08-03T13:04:39.012Z,100164.03
2022-08-03T13:07:14.091Z,100162.47
2022-08-03T13:09:45.961Z,100159.97
2022-08-03T13:12:15.194Z,100164.75
2022-08-03T13:14:43.542Z,100173.03
2022-08-03T13:17:11.000Z,100176.81
2022-08-03T13:19:39.491Z,100175.13
2022-08-03T13:22:14.813Z,100181.16
2022-08-03T13:24:43.407Z,100176.94
2022-08-03T13:28:12.435Z,100170.75
2022-08-03T13:29:58.011Z,100184.09
2022-08-03T13:32:25.257Z,100191.13
2022-08-03T13:34:52.324Z,100187.75
2022-08-03T13:37:19.400Z,100204.47
2022-08-03T13:39:57.265Z,100200.09
2022-08-03T13:42:26.580Z,100195.50
2022-08-03T13:44:53.687Z,100197.06
2022-08-03T13:47:23.366Z,100201.53
2022-08-03T13:50:01.403Z,100205.63
2022-08-03T13:52:35.013Z,100213.63
2022-08-03T13:55:03.638Z,100222.38
2022-08-03T13:58:04.970Z,100211.94
2022-08-03T14:00:27.455Z,100219.69
2022-08-03T14:03:13.113Z,100226.84
2022-08-03T14:05:41.642Z,100233.03
2022-08-03T14:08:09.106Z,100226.97
2022-08-03T14:10:44.337Z,100223.34
2022-08-03T14:13:16.671Z,100234.00
2022-08-03T14:15:50.369Z,100233.91
2022-08-03T14:18:29.291Z,100233.91
2022-08-03T14:21:05.818Z,100233.16
2022-08-03T14:23:40.921Z,100231.34
2022-08-03T14:26:09.780Z,100231.34
2022-08-03T14:28:37.067Z,100233.31
2022-08-03T14:31:08.160Z,100242.03
2022-08-03T14:33:42.394Z,100239.34
2022-08-03T14:36:09.364Z,100233.31
2022-08-03T14:38:36.417Z,100241.31
2022-08-03T14:41:03.523Z,100241.31
2022-08-03T14:43:33.767Z,100238.66
2022-08-03T14:46:01.293Z,100234.28
2022-08-03T14:50:32.949Z,100235.13
2022-08-03T14:51:15.248Z,100224.59
2022-08-03T14:53:42.242Z,100227.97
2022-08-03T14:56:10.692Z,100228.94
2022-08-03T14:58:38.329Z,100237.66
2022-08-03T15:02:05.134Z,100234.00
2022-08-03T15:03:52.411Z,100233.03
2022-08-03T15:06:19.463Z,100237.66
2022-08-03T15:09:00.503Z,100237.53
2022-08-03T15:11:33.645Z,100244.00
2022-08-03T15:14:00.568Z,100233.16
2022-08-03T15:16:29.865Z,100229.63
2022-08-03T15:18:57.115Z,100228.56
2022-08-03T15:21:47.227Z,100226.00
2022-08-03T15:24:14.946Z,100231.34
2022-08-03T15:26:42.021Z,100226.84
2022-08-03T15:29:09.176Z,100223.34
2022-08-03T15:31:56.122Z,100226.00
2022-08-03T15:34:23.043Z,100226.00
2022-08-03T15:36:49.988Z,100223.22
2022-08-03T15:39:17.029Z,100224.78
2022-08-03T15:41:43.980Z,100224.03
2022-08-03T15:44:10.951Z,100222.38
2022-08-03T15:46:38.050Z,100226.00
2022-08-03T15:49:05.010Z,100231.22
2022-08-03T15:51:31.899Z,100231.34
2022-08-03T15:53:58.850Z,100237.53
2022-08-03T15:56:27.211Z,100233.03
2022-08-03T15:59:09.201Z,100243.72
2022-08-03T16:01:40.533Z,100243.72
2022-08-03T16:04:07.712Z,100241.06
2022-08-03T16:06:36.322Z,100248.31
2022-08-03T16:09:23.521Z,100243.13
2022-08-03T16:11:55.913Z,100241.16
2022-08-03T16:14:34.350Z,100249.06
2022-08-03T16:17:07.331Z,100245.28
2022-08-03T16:19:34.299Z,100253.13
2022-08-03T16:22:03.255Z,100254.97
2022-08-03T16:24:30.383Z,100258.47
2022-08-03T16:26:57.493Z,100263.25
2022-08-03T16:29:24.516Z,100264.81
2022-08-03T16:31:52.500Z,100271.13
2022-08-03T16:34:20.237Z,100267.59
2022-08-03T16:36:47.203Z,100276.47
2022-08-03T16:39:14.263Z,100270.41
2022-08-03T16:41:54.273Z,100272.25
2022-08-03T16:44:31.387Z,100273.94
2022-08-03T16:46:59.736Z,100281.09
2022-08-03T16:49:54.832Z,100281.94
2022-08-03T16:52:13.894Z,100292.28
2022-08-03T16:54:44.652Z,100295.81
2022-08-03T16:57:56.537Z,100302.13
2022-08-03T17:00:09.785Z,100303.94
2022-08-03T17:02:37.193Z,100302.25
2022-08-03T17:05:05.368Z,100307.16
2022-08-03T17:07:32.449Z,100315.28
2022-08-03T17:10:01.695Z,100313.97
2022-08-03T17:12:28.809Z,100310.34
2022-08-03T17:14:57.040Z,100309.50
2022-08-03T17:17:43.006Z,100314.72
2022-08-03T17:20:29.743Z,100315.69
2022-08-03T17:23:03.989Z,100307.69
2022-08-03T17:26:01.782Z,100314.13
2022-08-03T17:28:49.514Z,100321.97
2022-08-03T17:31:23.394Z,100333.41
2022-08-03T17:34:01.066Z,100338.59
2022-08-03T17:36:47.558Z,100332.41
2022-08-03T17:39:30.798Z,100330.59
2022-08-03T17:42:29.469Z,100329.72
2022-08-03T17:44:54.202Z,100323.44
2022-08-03T17:47:21.766Z,100308.13
2022-08-03T17:49:49.784Z,100309.09
2022-08-03T17:52:42.235Z,100306.16
2022-08-03T17:55:57.714Z,100311.50
2022-08-03T17:58:13.921Z,100314.31
2022-08-03T18:01:04.501Z,100326.81
2022-08-03T18:03:59.297Z,100329.31
2022-08-03T18:06:31.610Z,100328.50
2022-08-03T18:09:00.071Z,100325.09
2022-08-03T18:11:35.717Z,100329.03
2022-08-03T18:14:15.999Z,100322.97
2022-08-03T18:16:56.167Z,100324.78
2022-08-03T18:20:03.343Z,100321.13
2022-08-03T18:22:13.518Z,100327.91
2022-08-03T18:24:42.836Z,100337.47
2022-08-03T18:27:16.079Z,100340.00
2022-08-03T18:29:47.118Z,100343.66
2022-08-03T18:32:25.410Z,100350.56
2022-08-03T18:34:56.399Z,100346.09
2022-08-03T18:37:26.017Z,100355.66
2022-08-03T18:39:58.018Z,100364.38
2022-08-03T18:42:25.789Z,100366.78
2022-08-03T18:44:56.135Z,100362.84
2022-08-03T18:47:52.577Z,100364.56
2022-08-03T18:50:50.642Z,100374.97
2022-08-03T18:53:24.143Z,100364.56
2022-08-03T18:56:50.780Z,100364.97
2022-08-03T18:59:51.305Z,100373.41
2022-08-03T19:02:25.731Z,100367.94
2022-08-03T19:04:55.146Z,100363.09
2022-08-03T19:07:35.867Z,100373.22
2022-08-03T19:10:09.545Z,100372.50
2022-08-03T19:12:47.923Z,100372.03
2022-08-03T19:15:16.110Z,100379.47
2022-08-03T19:17:52.814Z,100396.44
2022-08-03T19:20:27.227Z,100402.38
2022-08-03T19:22:57.963Z,100391.75
2022-08-03T19:25:34.261Z,100396.44
2022-08-03T19:28:06.323Z,100391.56
2022-08-03T19:30:53.361Z,100399.19
2022-08-03T19:33:22.805Z,100395.28
2022-08-03T19:38:38.697Z,100406.41
2022-08-03T19:41:09.670Z,100406.53
2022-08-03T19:44:05.075Z,100407.41
2022-08-03T19:46:41.653Z,100413.25
2022-08-03T19:49:15.859Z,100419.19
2022-08-03T19:51:58.580Z,100415.66
2022-08-03T19:54:45.799Z,100419.19
2022-08-03T19:57:23.323Z,100424.38
2022-08-03T19:59:52.858Z,100436.78
2022-08-03T20:02:26.265Z,100442.81
2022-08-03T20:04:57.727Z,100440.00
2022-08-03T20:07:30.607Z,100445.34
2022-08-03T20:10:01.671Z,100457.59
2022-08-03T20:12:35.579Z,100469.28
2022-08-03T20:15:07.176Z,100470.13
2022-08-03T20:17:56.566Z,100470.94
2022-08-03T20:20:30.175Z,100481.63
2022-08-03T20:22:59.084Z,100487.81
2022-08-03T20:25:37.947Z,100488.03
2022-08-03T20:28:15.786Z,100493.34
2022-08-03T20:30:46.366Z,100471.84
2022-08-03T20:33:19.055Z,100480.72
2022-08-03T20:35:49.614Z,100483.13
2022-08-03T20:38:19.654Z,100489.34
2022-08-03T20:40:51.569Z,100492.84
2022-08-03T20:43:20.010Z,100501.72
2022-08-03T20:45:59.851Z,100498.75
2022-08-03T20:48:37.585Z,100495.28
2022-08-03T20:51:19.291Z,100500.72
2022-08-03T20:53:57.292Z,100509.72
2022-08-03T20:56:33.695Z,100518.72
2022-08-03T20:59:07.462Z,100517.84
2022-08-03T21:01:42.419Z,100508.97
2022-08-03T21:04:13.583Z,100508.16
2022-08-03T21:06:53.103Z,100508.03
2022-08-03T21:09:33.597Z,100502.69
2022-08-03T21:12:15.470Z,100501.22
2022-08-03T21:13:09.782Z,100399.50
2022-08-03T21:15:05.987Z,100498.09
2022-08-03T21:17:41.036Z,100491.19
2022-08-03T21:20:11.505Z,100499.47
2022-08-03T21:22:43.105Z,100512.09
2022-08-03T21:25:12.941Z,100516.00
2022-08-03T21:27:41.465Z,100513.44
2022-08-03T21:30:13.083Z,100510.94
2022-08-03T21:32:43.662Z,100496.88
2022-08-03T21:35:11.291Z,100512.28
2022-08-03T21:37:41.030Z,100517.63
2022-08-03T21:40:11.523Z,100519.56
2022-08-03T21:42:41.386Z,100513.50
2022-08-03T21:45:16.884Z,100515.34
2022-08-03T21:47:45.601Z,100532.44
2022-08-03T21:50:14.227Z,100534.97
2022-08-03T21:52:47.060Z,100523.44
2022-08-03T21:55:18.661Z,100518.13
2022-08-03T21:57:54.154Z,100515.69
2022-08-03T22:00:23.505Z,100528.31
2022-08-03T22:02:58.118Z,100527.59
2022-08-03T22:05:28.934Z,100528.69
2022-08-03T22:08:11.088Z,100535.69
2022-08-03T22:10:38.793Z,100543.84
2022-08-03T22:13:07.352Z,100546.63
2022-08-03T22:15:34.904Z,100550.28
2022-08-03T22:18:04.991Z,100549.41
2022-08-03T22:20:32.792Z,100555.84
2022-08-03T22:23:04.053Z,100540.09
2022-08-03T22:25:34.318Z,100540.09
2022-08-03T22:28:06.970Z,100540.09
2022-08-03T22:30:34.645Z,100530.41
2022-08-03T22:33:04.919Z,100535.00
2022-08-03T22:35:47.468Z,100544.00
2022-08-03T22:38:15.900Z,100552.25
2022-08-03T22:40:43.518Z,100559.25
2022-08-03T22:43:10.708Z,100557.69
2022-08-03T22:46:06.351Z,100562.06
2022-08-03T22:48:26.966Z,100565.59
2022-08-03T22:50:56.407Z,100575.53
2022-08-03T22:53:23.794Z,100583.53
2022-08-03T22:55:52.418Z,100579.88
2022-08-03T22:58:21.345Z,100575.63
2022-08-03T23:00:54.095Z,100579.16
2022-08-03T23:03:58.678Z,100581.81
2022-08-03T23:06:15.759Z,100589.13
2022-08-03T23:08:46.693Z,100596.97
2022-08-03T23:11:17.179Z,100592.50
2022-08-03T23:13:47.419Z,100596.03
2022-08-03T23:16:16.598Z,100593.34
2022-08-03T23:18:56.637Z,100599.78
2022-08-03T23:21:53.989Z,100599.16
2022-08-03T23:24:28.484Z,100608.13
2022-08-03T23:26:59.100Z,100610.94
2022-08-03T23:29:29.717Z,100596.88
2022-08-03T23:31:57.887Z,100603.06
2022-08-03T23:34:44.113Z,100608.50
2022-08-03T23:37:14.378Z,100602.31
2022-08-03T23:39:45.192Z,100599.78
2022-08-03T23:42:15.270Z,100604.16
2022-08-03T23:44:43.921Z,100609.50
2022-08-03T23:47:12.473Z,100613.84
2022-08-03T23:49:39.952Z,100620.75
2022-08-03T23:52:15.022Z,100611.91
2022-08-03T23:54:47.701Z,100607.66
2022-08-03T23:57:50.748Z,100619.41
